sensor_id;sensor_type;location;lat;lon;timestamp;pressure;altitude;pressure_sealevel;temperature;humidity
22580;BME280;11456;47.030;15.396;2023-02-16T00:00:04;98663.03;;;-1.70;93.02
22580;BME280;11456;47.030;15.396;2023-02-16T00:02:32;98667.19;;;-1.38;92.19
22580;BME280;11456;47.030;15.396;2023-02-16T00:04:59;98675.13;;;-1.63;91.27
22580;BME280;11456;47.030;15.396;2023-02-16T00:07:25;98679.66;;;-1.93;92.08
22580;BME280;11456;47.030;15.396;2023-02-16T00:09:52;98673.38;;;-1.89;91.97
22580;BME280;11456;47.030;15.396;2023-02-16T00:12:19;98669.41;;;-1.76;91.88
22580;BME280;11456;47.030;15.396;2023-02-16T00:15:13;98668.69;;;-2.07;92.25
22580;BME280;11456;47.030;15.396;2023-02-16T00:17:41;98673.00;;;-2.05;92.46
22580;BME280;11456;47.030;15.396;2023-02-16T00:20:16;98671.19;;;-2.03;92.70
22580;BME280;11456;47.030;15.396;2023-02-16T00:22:43;98672.50;;;-1.89;92.75
22580;BME280;11456;47.030;15.396;2023-02-16T00:25:09;98671.63;;;-1.90;93.07
22580;BME280;11456;47.030;15.396;2023-02-16T00:27:36;98682.41;;;-1.96;92.69
22580;BME280;11456;47.030;15.396;2023-02-16T00:30:12;98681.44;;;-1.93;92.65
22580;BME280;11456;47.030;15.396;2023-02-16T00:32:39;98685.72;;;-2.17;92.16
22580;BME280;11456;47.030;15.396;2023-02-16T00:35:12;98683.00;;;-2.14;92.24
22580;BME280;11456;47.030;15.396;2023-02-16T00:37:39;98670.25;;;-2.28;92.22
22580;BME280;11456;47.030;15.396;2023-02-16T00:40:05;98674.84;;;-2.34;92.89
22580;BME280;11456;47.030;15.396;2023-02-16T00:42:32;98681.75;;;-2.30;92.24
22580;BME280;11456;47.030;15.396;2023-02-16T00:44:59;98675.66;;;-2.32;93.13
22580;BME280;11456;47.030;15.396;2023-02-16T00:49:55;98663.69;;;-2.16;92.33
22580;BME280;11456;47.030;15.396;2023-02-16T00:52:31;98665.91;;;-2.30;93.40
22580;BME280;11456;47.030;15.396;2023-02-16T00:54:59;98661.25;;;-2.22;93.81
22580;BME280;11456;47.030;15.396;2023-02-16T00:57:26;98674.56;;;-2.25;93.33
22580;BME280;11456;47.030;15.396;2023-02-16T00:59:59;98669.63;;;-2.10;93.27
22580;BME280;11456;47.030;15.396;2023-02-16T01:02:27;98668.03;;;-2.14;92.93
22580;BME280;11456;47.030;15.396;2023-02-16T01:04:54;98673.97;;;-2.07;93.04
22580;BME280;11456;47.030;15.396;2023-02-16T01:07:20;98671.00;;;-1.98;92.76
22580;BME280;11456;47.030;15.396;2023-02-16T01:10:06;98671.53;;;-2.13;92.47
22580;BME280;11456;47.030;15.396;2023-02-16T01:12:51;98662.84;;;-2.17;91.86
22580;BME280;11456;47.030;15.396;2023-02-16T01:15:18;98664.41;;;-2.11;92.02
22580;BME280;11456;47.030;15.396;2023-02-16T01:17:46;98665.44;;;-2.15;91.51
22580;BME280;11456;47.030;15.396;2023-02-16T01:20:14;98661.97;;;-2.17;91.52
22580;BME280;11456;47.030;15.396;2023-02-16T01:22:41;98671.56;;;-2.43;92.02
22580;BME280;11456;47.030;15.396;2023-02-16T01:25:07;98669.69;;;-2.37;92.91
22580;BME280;11456;47.030;15.396;2023-02-16T01:27:35;98661.13;;;-2.46;93.44
22580;BME280;11456;47.030;15.396;2023-02-16T01:30:03;98669.28;;;-2.25;93.02
22580;BME280;11456;47.030;15.396;2023-02-16T01:32:30;98669.28;;;-2.25;93.19
22580;BME280;11456;47.030;15.396;2023-02-16T01:34:57;98660.97;;;-2.13;93.04
22580;BME280;11456;47.030;15.396;2023-02-16T01:37:24;98661.41;;;-2.27;92.07
22580;BME280;11456;47.030;15.396;2023-02-16T01:39:50;98657.41;;;-2.38;92.25
22580;BME280;11456;47.030;15.396;2023-02-16T01:42:24;98658.38;;;-2.69;92.71
22580;BME280;11456;47.030;15.396;2023-02-16T01:44:58;98661.91;;;-2.70;93.37
22580;BME280;11456;47.030;15.396;2023-02-16T01:49:53;98664.41;;;-2.37;92.54
22580;BME280;11456;47.030;15.396;2023-02-16T01:54:51;98657.59;;;-2.45;92.43
22580;BME280;11456;47.030;15.396;2023-02-16T01:57:32;98661.59;;;-2.61;91.74
22580;BME280;11456;47.030;15.396;2023-02-16T02:00:10;98649.81;;;-2.49;92.37
22580;BME280;11456;47.030;15.396;2023-02-16T02:02:43;98649.88;;;-2.80;92.71
22580;BME280;11456;47.030;15.396;2023-02-16T02:08:01;98646.34;;;-2.79;93.29
22580;BME280;11456;47.030;15.396;2023-02-16T02:10:32;98632.78;;;-2.67;93.53
22580;BME280;11456;47.030;15.396;2023-02-16T02:13:06;98635.03;;;-2.55;93.71
22580;BME280;11456;47.030;15.396;2023-02-16T02:15:35;98636.97;;;-2.60;92.60
22580;BME280;11456;47.030;15.396;2023-02-16T02:18:02;98639.59;;;-2.60;92.49
22580;BME280;11456;47.030;15.396;2023-02-16T02:31:23;98627.38;;;-2.90;92.19
22580;BME280;11456;47.030;15.396;2023-02-16T02:36:42;98618.47;;;-2.88;92.78
22580;BME280;11456;47.030;15.396;2023-02-16T02:41:50;98618.19;;;-2.77;92.90
22580;BME280;11456;47.030;15.396;2023-02-16T02:44:46;98617.88;;;-2.68;92.54
22580;BME280;11456;47.030;15.396;2023-02-16T02:47:14;98619.03;;;-2.76;91.85
22580;BME280;11456;47.030;15.396;2023-02-16T02:49:47;98621.53;;;-2.72;91.71
22580;BME280;11456;47.030;15.396;2023-02-16T02:52:14;98612.13;;;-2.53;92.29
22580;BME280;11456;47.030;15.396;2023-02-16T02:54:40;98612.53;;;-2.65;91.78
22580;BME280;11456;47.030;15.396;2023-02-16T02:57:44;98616.06;;;-2.66;92.56
22580;BME280;11456;47.030;15.396;2023-02-16T03:00:40;98621.53;;;-2.72;92.08
22580;BME280;11456;47.030;15.396;2023-02-16T03:03:21;98615.38;;;-2.72;91.68
22580;BME280;11456;47.030;15.396;2023-02-16T03:05:54;98608.16;;;-2.66;91.91
22580;BME280;11456;47.030;15.396;2023-02-16T03:08:23;98616.19;;;-2.69;92.03
22580;BME280;11456;47.030;15.396;2023-02-16T03:10:51;98617.38;;;-2.80;91.46
22580;BME280;11456;47.030;15.396;2023-02-16T03:13:39;98610.00;;;-2.97;91.35
22580;BME280;11456;47.030;15.396;2023-02-16T03:16:09;98617.69;;;-2.90;91.80
22580;BME280;11456;47.030;15.396;2023-02-16T03:18:38;98621.59;;;-3.03;91.88
22580;BME280;11456;47.030;15.396;2023-02-16T03:21:24;98614.69;;;-2.77;92.08
22580;BME280;11456;47.030;15.396;2023-02-16T03:24:11;98616.63;;;-2.84;92.81
22580;BME280;11456;47.030;15.396;2023-02-16T03:26:57;98605.78;;;-2.75;92.56
22580;BME280;11456;47.030;15.396;2023-02-16T03:29:43;98608.81;;;-2.87;92.29
22580;BME280;11456;47.030;15.396;2023-02-16T03:32:10;98617.66;;;-3.19;92.63
22580;BME280;11456;47.030;15.396;2023-02-16T03:34:37;98611.09;;;-3.34;93.19
22580;BME280;11456;47.030;15.396;2023-02-16T03:37:04;98608.28;;;-3.28;94.01
22580;BME280;11456;47.030;15.396;2023-02-16T03:39:31;98608.03;;;-3.20;94.63
22580;BME280;11456;47.030;15.396;2023-02-16T03:42:18;98606.25;;;-2.89;94.58
22580;BME280;11456;47.030;15.396;2023-02-16T03:44:45;98610.56;;;-2.88;93.93
22580;BME280;11456;47.030;15.396;2023-02-16T03:47:11;98609.84;;;-2.63;92.66
22580;BME280;11456;47.030;15.396;2023-02-16T03:49:38;98600.16;;;-2.63;92.84
22580;BME280;11456;47.030;15.396;2023-02-16T03:52:04;98606.81;;;-2.79;91.98
22580;BME280;11456;47.030;15.396;2023-02-16T03:54:31;98602.44;;;-2.80;92.02
22580;BME280;11456;47.030;15.396;2023-02-16T03:56:57;98608.28;;;-2.98;91.69
22580;BME280;11456;47.030;15.396;2023-02-16T03:59:24;98604.81;;;-3.00;91.90
22580;BME280;11456;47.030;15.396;2023-02-16T04:01:50;98605.06;;;-3.08;92.09
22580;BME280;11456;47.030;15.396;2023-02-16T04:04:17;98602.66;;;-2.88;92.22
22580;BME280;11456;47.030;15.396;2023-02-16T04:06:43;98600.34;;;-2.97;91.77
22580;BME280;11456;47.030;15.396;2023-02-16T04:09:10;98601.75;;;-3.14;91.55
22580;BME280;11456;47.030;15.396;2023-02-16T04:11:36;98596.28;;;-3.08;92.60
22580;BME280;11456;47.030;15.396;2023-02-16T04:14:21;98598.28;;;-3.16;93.26
22580;BME280;11456;47.030;15.396;2023-02-16T04:16:48;98595.47;;;-3.10;94.27
22580;BME280;11456;47.030;15.396;2023-02-16T04:19:14;98594.09;;;-2.94;93.97
22580;BME280;11456;47.030;15.396;2023-02-16T04:21:41;98594.09;;;-2.94;93.95
22580;BME280;11456;47.030;15.396;2023-02-16T04:24:08;98585.28;;;-2.93;93.54
22580;BME280;11456;47.030;15.396;2023-02-16T04:26:34;98582.34;;;-3.12;93.07
22580;BME280;11456;47.030;15.396;2023-02-16T04:29:01;98591.56;;;-3.27;92.88
22580;BME280;11456;47.030;15.396;2023-02-16T04:31:28;98586.81;;;-3.14;93.34
22580;BME280;11456;47.030;15.396;2023-02-16T04:33:54;98581.22;;;-2.75;93.24
22580;BME280;11456;47.030;15.396;2023-02-16T04:36:21;98579.72;;;-2.84;93.41
22580;BME280;11456;47.030;15.396;2023-02-16T04:38:47;98571.19;;;-2.92;93.04
22580;BME280;11456;47.030;15.396;2023-02-16T04:41:14;98570.41;;;-3.24;92.45
22580;BME280;11456;47.030;15.396;2023-02-16T04:43:40;98572.03;;;-3.19;92.98
22580;BME280;11456;47.030;15.396;2023-02-16T04:46:07;98583.03;;;-3.35;93.06
22580;BME280;11456;47.030;15.396;2023-02-16T04:48:33;98575.69;;;-3.25;93.26
22580;BME280;11456;47.030;15.396;2023-02-16T04:51:02;98573.56;;;-3.12;92.75
22580;BME280;11456;47.030;15.396;2023-02-16T04:53:29;98573.69;;;-3.15;92.94
22580;BME280;11456;47.030;15.396;2023-02-16T04:55:55;98568.13;;;-3.36;93.14
22580;BME280;11456;47.030;15.396;2023-02-16T04:58:22;98574.22;;;-3.65;94.91
22580;BME280;11456;47.030;15.396;2023-02-16T05:00:48;98566.28;;;-3.63;94.72
22580;BME280;11456;47.030;15.396;2023-02-16T05:03:15;98569.94;;;-3.38;94.13
22580;BME280;11456;47.030;15.396;2023-02-16T05:05:41;98567.56;;;-2.88;94.18
22580;BME280;11456;47.030;15.396;2023-02-16T05:08:08;98564.19;;;-2.93;93.06
22580;BME280;11456;47.030;15.396;2023-02-16T05:10:34;98565.34;;;-3.02;93.17
22580;BME280;11456;47.030;15.396;2023-02-16T05:13:01;98562.31;;;-3.17;92.33
22580;BME280;11456;47.030;15.396;2023-02-16T05:15:46;98565.53;;;-3.08;92.07
22580;BME280;11456;47.030;15.396;2023-02-16T05:18:12;98568.13;;;-3.36;91.99
22580;BME280;11456;47.030;15.396;2023-02-16T05:20:39;98560.97;;;-3.32;92.58
22580;BME280;11456;47.030;15.396;2023-02-16T05:23:24;98561.34;;;-3.44;92.59
22580;BME280;11456;47.030;15.396;2023-02-16T05:25:50;98559.41;;;-3.38;92.93
22580;BME280;11456;47.030;15.396;2023-02-16T05:28:17;98566.81;;;-3.52;92.36
22580;BME280;11456;47.030;15.396;2023-02-16T05:30:43;98567.94;;;-3.59;91.86
22580;BME280;11456;47.030;15.396;2023-02-16T05:33:10;98560.16;;;-3.64;92.80
22580;BME280;11456;47.030;15.396;2023-02-16T05:35:37;98561.44;;;-3.47;92.64
22580;BME280;11456;47.030;15.396;2023-02-16T05:38:03;98566.94;;;-3.26;92.27
22580;BME280;11456;47.030;15.396;2023-02-16T05:40:30;98563.31;;;-3.21;92.09
22580;BME280;11456;47.030;15.396;2023-02-16T05:42:56;98566.84;;;-3.22;92.77
22580;BME280;11456;47.030;15.396;2023-02-16T05:45:22;98565.47;;;-3.34;93.93
22580;BME280;11456;47.030;15.396;2023-02-16T05:47:49;98562.59;;;-3.27;92.85
22580;BME280;11456;47.030;15.396;2023-02-16T05:50:16;98568.66;;;-3.25;93.27
22580;BME280;11456;47.030;15.396;2023-02-16T05:52:42;98570.66;;;-3.33;93.22
22580;BME280;11456;47.030;15.396;2023-02-16T05:55:09;98585.25;;;-3.52;92.63
22580;BME280;11456;47.030;15.396;2023-02-16T05:57:35;98577.75;;;-3.35;93.40
22580;BME280;11456;47.030;15.396;2023-02-16T06:00:03;98584.94;;;-3.40;92.43
22580;BME280;11456;47.030;15.396;2023-02-16T06:02:29;98579.19;;;-3.25;92.70
22580;BME280;11456;47.030;15.396;2023-02-16T06:04:56;98574.47;;;-3.13;92.63
22580;BME280;11456;47.030;15.396;2023-02-16T06:07:22;98580.75;;;-3.17;92.07
22580;BME280;11456;47.030;15.396;2023-02-16T06:09:49;98577.66;;;-3.32;91.30
22580;BME280;11456;47.030;15.396;2023-02-16T06:12:15;98586.25;;;-3.25;91.16
22580;BME280;11456;47.030;15.396;2023-02-16T06:14:42;98596.56;;;-3.17;91.46
22580;BME280;11456;47.030;15.396;2023-02-16T06:17:08;98588.91;;;-2.97;91.10
22580;BME280;11456;47.030;15.396;2023-02-16T06:19:35;98593.50;;;-3.04;90.85
22580;BME280;11456;47.030;15.396;2023-02-16T06:22:01;98596.91;;;-2.71;90.16
22580;BME280;11456;47.030;15.396;2023-02-16T06:24:28;98594.69;;;-2.57;88.55
22580;BME280;11456;47.030;15.396;2023-02-16T06:26:55;98601.28;;;-2.17;88.57
22580;BME280;11456;47.030;15.396;2023-02-16T06:29:21;98609.16;;;-2.16;88.04
22580;BME280;11456;47.030;15.396;2023-02-16T06:31:48;98600.63;;;-1.73;87.10
22580;BME280;11456;47.030;15.396;2023-02-16T06:34:14;98605.13;;;-1.75;87.83
22580;BME280;11456;47.030;15.396;2023-02-16T06:36:41;98605.28;;;-1.54;87.41
22580;BME280;11456;47.030;15.396;2023-02-16T06:39:08;98604.19;;;-1.49;86.66
22580;BME280;11456;47.030;15.396;2023-02-16T06:41:34;98608.16;;;-1.37;86.91
22580;BME280;11456;47.030;15.396;2023-02-16T06:44:07;98604.56;;;-1.59;88.70
22580;BME280;11456;47.030;15.396;2023-02-16T06:46:33;98609.56;;;-1.52;88.53
22580;BME280;11456;47.030;15.396;2023-02-16T06:49:00;98613.25;;;-1.56;89.47
22580;BME280;11456;47.030;15.396;2023-02-16T06:51:27;98618.59;;;-1.34;89.41
22580;BME280;11456;47.030;15.396;2023-02-16T06:53:53;98623.09;;;-1.13;88.71
22580;BME280;11456;47.030;15.396;2023-02-16T06:56:20;98617.03;;;-0.92;88.05
22580;BME280;11456;47.030;15.396;2023-02-16T06:58:47;98619.28;;;-0.59;86.23
22580;BME280;11456;47.030;15.396;2023-02-16T07:01:13;98614.75;;;-0.34;85.44
22580;BME280;11456;47.030;15.396;2023-02-16T07:03:40;98615.09;;;-0.65;86.86
22580;BME280;11456;47.030;15.396;2023-02-16T07:06:06;98618.28;;;-0.57;87.45
22580;BME280;11456;47.030;15.396;2023-02-16T07:08:33;98608.72;;;-0.59;86.17
22580;BME280;11456;47.030;15.396;2023-02-16T07:11:01;98621.69;;;-0.98;88.15
22580;BME280;11456;47.030;15.396;2023-02-16T07:13:27;98614.25;;;-0.65;88.45
22580;BME280;11456;47.030;15.396;2023-02-16T07:15:54;98605.88;;;-0.33;89.27
22580;BME280;11456;47.030;15.396;2023-02-16T07:18:20;98609.03;;;0.19;87.31
22580;BME280;11456;47.030;15.396;2023-02-16T07:20:47;98600.41;;;0.54;87.29
22580;BME280;11456;47.030;15.396;2023-02-16T07:23:13;98598.34;;;1.00;85.46
22580;BME280;11456;47.030;15.396;2023-02-16T07:25:40;98592.84;;;1.78;83.50
22580;BME280;11456;47.030;15.396;2023-02-16T07:28:06;98593.09;;;1.90;82.60
22580;BME280;11456;47.030;15.396;2023-02-16T07:30:34;98596.00;;;2.03;82.25
22580;BME280;11456;47.030;15.396;2023-02-16T07:33:01;98590.00;;;2.17;81.21
22580;BME280;11456;47.030;15.396;2023-02-16T07:35:27;98600.69;;;2.50;81.82
22580;BME280;11456;47.030;15.396;2023-02-16T07:37:54;98593.16;;;2.75;79.92
22580;BME280;11456;47.030;15.396;2023-02-16T07:40:20;98598.28;;;2.78;78.52
22580;BME280;11456;47.030;15.396;2023-02-16T07:42:47;98601.31;;;3.36;77.29
22580;BME280;11456;47.030;15.396;2023-02-16T07:45:13;98595.69;;;3.58;75.71
22580;BME280;11456;47.030;15.396;2023-02-16T07:47:40;98605.78;;;3.36;75.91
22580;BME280;11456;47.030;15.396;2023-02-16T07:50:06;98592.72;;;3.94;73.78
22580;BME280;11456;47.030;15.396;2023-02-16T07:52:33;98602.88;;;3.87;72.26
22580;BME280;11456;47.030;15.396;2023-02-16T07:55:00;98603.56;;;3.75;73.99
22580;BME280;11456;47.030;15.396;2023-02-16T07:57:26;98598.97;;;4.09;74.57
22580;BME280;11456;47.030;15.396;2023-02-16T07:59:53;98601.06;;;5.06;70.90
22580;BME280;11456;47.030;15.396;2023-02-16T08:02:20;98598.22;;;5.09;67.96
22580;BME280;11456;47.030;15.396;2023-02-16T08:04:48;98605.81;;;4.42;67.88
22580;BME280;11456;47.030;15.396;2023-02-16T08:07:15;98602.94;;;4.31;69.29
22580;BME280;11456;47.030;15.396;2023-02-16T08:09:42;98602.78;;;4.78;67.47
22580;BME280;11456;47.030;15.396;2023-02-16T08:12:09;98605.78;;;4.58;69.86
22580;BME280;11456;47.030;15.396;2023-02-16T08:14:36;98596.31;;;4.97;70.26
22580;BME280;11456;47.030;15.396;2023-02-16T08:17:03;98596.19;;;5.27;68.55
22580;BME280;11456;47.030;15.396;2023-02-16T08:19:30;98598.22;;;5.09;67.40
22580;BME280;11456;47.030;15.396;2023-02-16T08:21:58;98603.69;;;6.30;66.51
22580;BME280;11456;47.030;15.396;2023-02-16T08:24:25;98606.81;;;7.14;64.03
22580;BME280;11456;47.030;15.396;2023-02-16T08:26:53;98602.84;;;7.69;61.75
22580;BME280;11456;47.030;15.396;2023-02-16T08:29:21;98606.13;;;6.98;60.91
22580;BME280;11456;47.030;15.396;2023-02-16T08:31:48;98601.53;;;6.75;60.66
22580;BME280;11456;47.030;15.396;2023-02-16T08:34:16;98610.16;;;5.73;66.17
22580;BME280;11456;47.030;15.396;2023-02-16T08:36:44;98609.81;;;7.22;64.26
22580;BME280;11456;47.030;15.396;2023-02-16T08:39:16;98617.09;;;6.95;61.05
22580;BME280;11456;47.030;15.396;2023-02-16T08:41:43;98612.56;;;6.70;62.11
22580;BME280;11456;47.030;15.396;2023-02-16T08:44:10;98612.22;;;6.23;64.01
22580;BME280;11456;47.030;15.396;2023-02-16T08:46:37;98619.66;;;6.05;64.63
22580;BME280;11456;47.030;15.396;2023-02-16T08:49:05;98616.75;;;5.67;69.02
22580;BME280;11456;47.030;15.396;2023-02-16T08:51:33;98616.63;;;5.97;69.13
22580;BME280;11456;47.030;15.396;2023-02-16T08:54:04;98613.22;;;5.95;64.35
22580;BME280;11456;47.030;15.396;2023-02-16T08:56:31;98613.63;;;5.60;68.45
22580;BME280;11456;47.030;15.396;2023-02-16T08:59:00;98609.13;;;6.81;64.20
22580;BME280;11456;47.030;15.396;2023-02-16T09:01:27;98605.94;;;6.89;61.97
22580;BME280;11456;47.030;15.396;2023-02-16T09:03:53;98605.66;;;6.54;61.90
22580;BME280;11456;47.030;15.396;2023-02-16T09:06:21;98596.66;;;7.56;63.15
22580;BME280;11456;47.030;15.396;2023-02-16T09:08:51;98604.84;;;8.15;60.82
22580;BME280;11456;47.030;15.396;2023-02-16T09:11:18;98598.63;;;8.62;59.13
22580;BME280;11456;47.030;15.396;2023-02-16T09:13:45;98597.41;;;7.94;56.79
22580;BME280;11456;47.030;15.396;2023-02-16T09:16:13;98593.16;;;8.39;58.93
22580;BME280;11456;47.030;15.396;2023-02-16T09:18:41;98597.34;;;7.47;58.78
22580;BME280;11456;47.030;15.396;2023-02-16T09:21:08;98595.16;;;7.88;59.55
22580;BME280;11456;47.030;15.396;2023-02-16T09:23:37;98598.00;;;8.11;57.68
22580;BME280;11456;47.030;15.396;2023-02-16T09:26:04;98591.53;;;7.89;58.65
22580;BME280;11456;47.030;15.396;2023-02-16T09:28:35;98589.13;;;7.74;59.45
22580;BME280;11456;47.030;15.396;2023-02-16T09:31:10;98588.84;;;7.89;59.07
22580;BME280;11456;47.030;15.396;2023-02-16T09:33:37;98598.09;;;7.49;61.16
22580;BME280;11456;47.030;15.396;2023-02-16T09:36:05;98587.28;;;8.69;57.99
22580;BME280;11456;47.030;15.396;2023-02-16T09:38:32;98596.59;;;8.76;57.18
22580;BME280;11456;47.030;15.396;2023-02-16T09:41:34;98594.19;;;9.07;55.61
22580;BME280;11456;47.030;15.396;2023-02-16T09:44:02;98598.84;;;9.49;54.70
22580;BME280;11456;47.030;15.396;2023-02-16T09:46:32;98594.78;;;8.88;56.64
22580;BME280;11456;47.030;15.396;2023-02-16T09:49:00;98592.00;;;9.23;54.38
22580;BME280;11456;47.030;15.396;2023-02-16T09:51:32;98598.81;;;8.94;54.75
22580;BME280;11456;47.030;15.396;2023-02-16T09:54:04;98591.88;;;8.56;54.96
22580;BME280;11456;47.030;15.396;2023-02-16T09:56:55;98591.38;;;8.51;56.63
22580;BME280;11456;47.030;15.396;2023-02-16T10:02:06;98590.03;;;9.81;52.24
22580;BME280;11456;47.030;15.396;2023-02-16T10:07:29;98595.88;;;9.86;52.80
22580;BME280;11456;47.030;15.396;2023-02-16T10:09:56;98600.56;;;9.50;52.54
22580;BME280;11456;47.030;15.396;2023-02-16T10:12:28;98603.03;;;9.64;52.93
22580;BME280;11456;47.030;15.396;2023-02-16T10:15:02;98609.81;;;10.77;50.77
22580;BME280;11456;47.030;15.396;2023-02-16T10:20:15;98591.84;;;11.29;48.56
22580;BME280;11456;47.030;15.396;2023-02-16T10:22:47;98588.16;;;10.47;49.91
22580;BME280;11456;47.030;15.396;2023-02-16T10:25:35;98584.06;;;11.05;48.35
22580;BME280;11456;47.030;15.396;2023-02-16T10:28:13;98590.78;;;10.58;49.25
22580;BME280;11456;47.030;15.396;2023-02-16T10:30:41;98576.56;;;11.39;48.51
22580;BME280;11456;47.030;15.396;2023-02-16T10:35:57;98581.88;;;11.19;49.14
22580;BME280;11456;47.030;15.396;2023-02-16T10:46:09;98565.22;;;12.34;45.76
22580;BME280;11456;47.030;15.396;2023-02-16T10:48:36;98572.69;;;11.62;45.51
22580;BME280;11456;47.030;15.396;2023-02-16T10:51:15;98563.16;;;11.98;45.21
22580;BME280;11456;47.030;15.396;2023-02-16T10:54:17;98572.56;;;12.80;44.14
22580;BME280;11456;47.030;15.396;2023-02-16T10:59:04;98553.75;;;13.08;40.61
22580;BME280;11456;47.030;15.396;2023-02-16T11:03:58;98552.81;;;12.80;41.76
22580;BME280;11456;47.030;15.396;2023-02-16T11:06:25;98542.75;;;12.34;40.60
22580;BME280;11456;47.030;15.396;2023-02-16T11:08:53;98544.28;;;12.65;40.03
22580;BME280;11456;47.030;15.396;2023-02-16T11:11:25;98539.19;;;13.38;39.99
22580;BME280;11456;47.030;15.396;2023-02-16T11:13:56;98526.53;;;13.83;38.16
22580;BME280;11456;47.030;15.396;2023-02-16T11:16:24;98531.50;;;13.33;38.22
22580;BME280;11456;47.030;15.396;2023-02-16T11:21:41;98537.72;;;13.98;38.55
22580;BME280;11456;47.030;15.396;2023-02-16T11:24:09;98536.72;;;12.88;40.31
22580;BME280;11456;47.030;15.396;2023-02-16T11:26:37;98536.06;;;14.32;37.90
22580;BME280;11456;47.030;15.396;2023-02-16T11:29:37;98539.28;;;14.18;37.69
22580;BME280;11456;47.030;15.396;2023-02-16T11:31:57;98532.97;;;14.63;37.12
22580;BME280;11456;47.030;15.396;2023-02-16T11:34:34;98535.19;;;14.32;37.88
22580;BME280;11456;47.030;15.396;2023-02-16T11:39:33;98525.72;;;13.55;39.67
22580;BME280;11456;47.030;15.396;2023-02-16T11:42:08;98524.28;;;13.51;39.40
22580;BME280;11456;47.030;15.396;2023-02-16T11:44:36;98511.91;;;15.00;37.83
22580;BME280;11456;47.030;15.396;2023-02-16T11:47:08;98510.22;;;13.75;39.07
22580;BME280;11456;47.030;15.396;2023-02-16T11:49:46;98508.50;;;14.55;38.11
22580;BME280;11456;47.030;15.396;2023-02-16T11:54:55;98508.25;;;14.13;39.26
22580;BME280;11456;47.030;15.396;2023-02-16T11:57:24;98504.53;;;14.67;38.00
22580;BME280;11456;47.030;15.396;2023-02-16T11:59:50;98496.91;;;14.44;37.47
22580;BME280;11456;47.030;15.396;2023-02-16T12:15:03;98466.38;;;15.46;35.58
22580;BME280;11456;47.030;15.396;2023-02-16T12:20:04;98462.38;;;16.73;33.52
22580;BME280;11456;47.030;15.396;2023-02-16T12:22:46;98452.34;;;16.41;33.13
22580;BME280;11456;47.030;15.396;2023-02-16T12:33:09;98448.94;;;16.55;32.71
22580;BME280;11456;47.030;15.396;2023-02-16T12:35:59;98441.13;;;16.44;34.09
22580;BME280;11456;47.030;15.396;2023-02-16T12:38:42;98440.72;;;15.82;34.67
22580;BME280;11456;47.030;15.396;2023-02-16T12:46:25;98426.81;;;16.91;33.38
22580;BME280;11456;47.030;15.396;2023-02-16T12:48:54;98427.22;;;16.63;32.69
22580;BME280;11456;47.030;15.396;2023-02-16T12:51:26;98420.41;;;16.67;32.94
22580;BME280;11456;47.030;15.396;2023-02-16T12:56:46;98421.38;;;16.91;32.66
22580;BME280;11456;47.030;15.396;2023-02-16T12:59:18;98413.00;;;17.08;32.62
22580;BME280;11456;47.030;15.396;2023-02-16T13:01:48;98412.78;;;17.18;31.34
22580;BME280;11456;47.030;15.396;2023-02-16T13:04:20;98411.53;;;16.81;32.17
22580;BME280;11456;47.030;15.396;2023-02-16T13:06:49;98413.66;;;17.57;31.74
22580;BME280;11456;47.030;15.396;2023-02-16T13:14:32;98399.03;;;17.50;31.27
22580;BME280;11456;47.030;15.396;2023-02-16T13:17:20;98403.09;;;17.54;31.60
22580;BME280;11456;47.030;15.396;2023-02-16T13:19:49;98399.34;;;17.55;32.14
22580;BME280;11456;47.030;15.396;2023-02-16T13:22:22;98399.16;;;17.26;31.81
22580;BME280;11456;47.030;15.396;2023-02-16T13:25:19;98400.22;;;17.48;29.81
22580;BME280;11456;47.030;15.396;2023-02-16T13:33:24;98390.69;;;17.13;29.96
22580;BME280;11456;47.030;15.396;2023-02-16T13:43:51;98391.00;;;17.57;30.57
22580;BME280;11456;47.030;15.396;2023-02-16T13:46:26;98380.53;;;16.99;30.95
22580;BME280;11456;47.030;15.396;2023-02-16T13:48:54;98386.06;;;16.34;32.30
22580;BME280;11456;47.030;15.396;2023-02-16T13:51:23;98378.84;;;16.98;31.42
22580;BME280;11456;47.030;15.396;2023-02-16T13:56:21;98382.00;;;16.70;31.97
22580;BME280;11456;47.030;15.396;2023-02-16T13:58:51;98382.94;;;17.02;31.55
22580;BME280;11456;47.030;15.396;2023-02-16T14:03:57;98387.91;;;17.29;30.23
22580;BME280;11456;47.030;15.396;2023-02-16T14:20:09;98383.34;;;16.50;28.54
22580;BME280;11456;47.030;15.396;2023-02-16T14:22:46;98377.59;;;16.29;30.39
22580;BME280;11456;47.030;15.396;2023-02-16T14:27:57;98375.88;;;16.03;31.83
22580;BME280;11456;47.030;15.396;2023-02-16T14:30:26;98375.91;;;14.95;33.85
22580;BME280;11456;47.030;15.396;2023-02-16T14:33:18;98373.47;;;15.68;33.97
22580;BME280;11456;47.030;15.396;2023-02-16T14:35:45;98374.53;;;16.32;33.51
22580;BME280;11456;47.030;15.396;2023-02-16T14:38:31;98374.53;;;16.24;33.51
22580;BME280;11456;47.030;15.396;2023-02-16T14:40:59;98372.13;;;15.80;34.73
22580;BME280;11456;47.030;15.396;2023-02-16T14:43:33;98371.81;;;15.91;34.87
22580;BME280;11456;47.030;15.396;2023-02-16T14:59:04;98367.72;;;14.35;38.25
22580;BME280;11456;47.030;15.396;2023-02-16T15:01:39;98369.44;;;13.75;39.74
22580;BME280;11456;47.030;15.396;2023-02-16T15:04:07;98373.53;;;13.16;40.74
22580;BME280;11456;47.030;15.396;2023-02-16T15:06:36;98382.28;;;12.64;42.19
22580;BME280;11456;47.030;15.396;2023-02-16T15:09:05;98379.31;;;12.94;41.44
22580;BME280;11456;47.030;15.396;2023-02-16T15:14:35;98381.50;;;12.44;43.71
22580;BME280;11456;47.030;15.396;2023-02-16T15:17:05;98380.56;;;12.72;43.15
22580;BME280;11456;47.030;15.396;2023-02-16T15:19:31;98378.00;;;12.61;43.12
22580;BME280;11456;47.030;15.396;2023-02-16T15:22:08;98379.19;;;12.59;43.55
22580;BME280;11456;47.030;15.396;2023-02-16T15:24:35;98382.88;;;11.82;44.45
22580;BME280;11456;47.030;15.396;2023-02-16T15:27:02;98384.63;;;11.34;45.41
22580;BME280;11456;47.030;15.396;2023-02-16T15:29:28;98378.63;;;11.20;45.64
22580;BME280;11456;47.030;15.396;2023-02-16T15:31:57;98379.75;;;11.08;46.46